ADDS METAR Data INFO
IDs: Format: Raw Decoded Include TAF

Data at: 0932 UTC 17 Oct 2017

K2V5 170915Z AUTO 27005KT 10SM CLR 03/M02 A3019 RMK AO2
K2V5 170855Z AUTO 27006KT 10SM CLR 03/M02 A3019 RMK AO2
K2V5 170835Z AUTO 26006KT 10SM CLR 03/M02 A3019 RMK AO2
K2V5 170815Z AUTO 26008KT 10SM CLR 03/M02 A3019 RMK AO2
K2V5 170755Z AUTO 28007KT 10SM CLR 03/M02 A3019 RMK AO2
K2V5 170735Z AUTO 26006KT 10SM CLR 04/M02 A3019 RMK AO2
K2V5 170715Z AUTO 26005KT 10SM CLR 04/M02 A3018 RMK AO2
K2V5 170655Z AUTO 26007KT 10SM CLR 05/M02 A3018 RMK AO2
K2V5 170635Z AUTO 27006KT 10SM CLR 04/M02 A3018 RMK AO2
K2V5 170615Z AUTO 25006KT 10SM CLR 05/M02 A3018 RMK AO2
K2V5 170555Z AUTO 26006KT 10SM CLR 06/M02 A3018 RMK AO2
K2V5 170535Z AUTO 26005KT 10SM CLR 06/M02 A3018 RMK AO2
K2V5 170515Z AUTO 25006KT 10SM CLR 06/M02 A3018 RMK AO2
K2V5 170455Z AUTO 27005KT 10SM CLR 07/M03 A3017 RMK AO2
K2V5 170435Z AUTO 27004KT 10SM CLR 08/M02 A3017 RMK AO2
K2V5 170415Z AUTO 00000KT 10SM CLR 09/M03 A3017 RMK AO2
K2V5 170355Z AUTO 00000KT 10SM CLR 08/M02 A3017 RMK AO2
K2V5 170335Z AUTO 00000KT 10SM CLR 08/M02 A3017 RMK AO2
K2V5 170315Z AUTO 34005KT 10SM CLR 12/M05 A3016 RMK AO2
K2V5 170255Z AUTO 34005KT 10SM CLR 13/M05 A3016 RMK AO2
K2V5 170235Z AUTO 00000KT 10SM CLR 10/M02 A3016 RMK AO2
K2V5 170215Z AUTO 32004KT 10SM CLR 13/M03 A3015 RMK AO2
K2V5 170155Z AUTO 00000KT 10SM CLR 13/M03 A3015 RMK AO2
K2V5 170135Z AUTO 00000KT 10SM CLR 15/M05 A3014 RMK AO2
K2V5 170115Z AUTO 00000KT 10SM CLR 18/M08 A3014 RMK AO2
K2V5 170055Z AUTO 00000KT 10SM CLR 18/M08 A3013 RMK AO2
K2V5 170035Z AUTO 00000KT 10SM CLR 19/M07 A3012 RMK AO2
K2V5 170015Z AUTO 30003KT 10SM CLR 18/M05 A3012 RMK AO2
K2V5 162355Z AUTO 33005KT 10SM CLR 21/M07 A3012 RMK AO2
K2V5 162335Z AUTO 34005KT 10SM CLR 21/M08 A3012 RMK AO2
K2V5 162315Z AUTO 33006KT 10SM CLR 23/M09 A3012 RMK AO2
K2V5 162255Z AUTO 32007KT 10SM CLR 24/M11 A3012 RMK AO2
K2V5 162235Z AUTO 32009KT 10SM CLR 26/M11 A3012 RMK AO2
K2V5 162215Z AUTO 35005G22KT 10SM CLR 27/M07 A3011 RMK AO2
K2V5 162155Z AUTO 32007KT 10SM CLR 28/M07 A3012 RMK AO2
K2V5 162135Z AUTO 28005KT 10SM CLR 28/M08 A3012 RMK AO2
K2V5 162115Z AUTO 32004KT 10SM CLR 28/M06 A3012 RMK AO2
K2V5 162055Z AUTO 00000KT 10SM CLR 27/M05 A3013 RMK AO2
K2V5 162035Z AUTO 00000KT 10SM CLR 26/M05 A3013 RMK AO2
K2V5 162015Z AUTO 26003KT 10SM CLR 26/M05 A3014 RMK AO2
K2V5 161955Z AUTO 23004KT 10SM CLR 26/M05 A3014 RMK AO2
K2V5 161935Z AUTO 26007KT 10SM CLR 26/M04 A3016 RMK AO2
K2V5 161915Z AUTO 22008KT 10SM CLR 25/M04 A3017 RMK AO2
K2V5 161855Z AUTO 25009G14KT 10SM CLR 26/M05 A3018 RMK AO2
K2V5 161835Z AUTO 22009KT 10SM CLR 26/M05 A3019 RMK AO2
K2V5 161815Z AUTO 24012G16KT 10SM CLR 25/M06 A3020 RMK AO2
K2V5 161755Z AUTO 22011KT 10SM CLR 25/M05 A3022 RMK AO2
K2V5 161735Z AUTO 22010G16KT 10SM CLR 25/M05 A3023 RMK AO2
K2V5 161715Z AUTO 23004KT 10SM CLR 22/M01 A3024 RMK AO2
K2V5 161655Z AUTO 10SM CLR 20/M01 A3025 RMK AO2
K2V5 161635Z AUTO 10SM CLR 18/M01 A3025 RMK AO2
K2V5 161615Z AUTO 24006KT 10SM CLR 17/M01 A3027 RMK AO2
K2V5 161555Z AUTO 25003KT 10SM CLR 16/M01 A3027 RMK AO2
K2V5 161535Z AUTO 10SM CLR 13/M01 A3028 RMK AO2
K2V5 161515Z AUTO 25003KT 10SM CLR 11/00 A3029 RMK AO2
K2V5 161455Z AUTO 27003KT 10SM CLR 10/00 A3029 RMK AO2
K2V5 161435Z AUTO 25003KT 10SM CLR 08/M01 A3029 RMK AO2
K2V5 161415Z AUTO 25004KT 10SM CLR 06/M01 A3029 RMK AO2
K2V5 161355Z AUTO 25005KT 10SM CLR 05/M01 A3028 RMK AO2
K2V5 161335Z AUTO 26004KT 10SM CLR 02/M01 A3029 RMK AO2
K2V5 161315Z AUTO 26005KT 10SM CLR 00/M02 A3029 RMK AO2
K2V5 161255Z AUTO 26003KT 10SM CLR 00/M02 A3030 RMK AO2
K2V5 161235Z AUTO 27006KT 10SM CLR 00/M02 A3030 RMK AO2
K2V5 161215Z AUTO 31003KT 10SM CLR 00/M02 A3031 RMK AO2
K2V5 161155Z AUTO 29004KT 10SM CLR 01/M02 A3031 RMK AO2
K2V5 161135Z AUTO 26005KT 10SM CLR 01/M02 A3031 RMK AO2
K2V5 161115Z AUTO 26006KT 10SM CLR 03/M01 A3031 RMK AO2
K2V5 161055Z AUTO 26007KT 10SM CLR 03/M01 A3030 RMK AO2
K2V5 161035Z AUTO 27007KT 10SM CLR 02/M01 A3030 RMK AO2
K2V5 161015Z AUTO 25004KT 10SM CLR 03/M02 A3031 RMK AO2
K2V5 160955Z AUTO 26004KT 10SM CLR 03/M02 A3031 RMK AO2
K2V5 160935Z AUTO 25005KT 10SM CLR 04/M01 A3031 RMK AO2
K2V5 160915Z AUTO 25008KT 10SM CLR 04/M01 A3031 RMK AO2
K2V5 160855Z AUTO 26007KT 10SM CLR 04/M01 A3033 RMK AO2
K2V5 160835Z AUTO 26007KT 10SM CLR 04/M01 A3033 RMK AO2
K2V5 160815Z AUTO 24007KT 10SM CLR 04/M01 A3034 RMK AO2
K2V5 160755Z AUTO 26007KT 10SM CLR 04/M01 A3035 RMK AO2
K2V5 160735Z AUTO 26007KT 10SM CLR 03/M01 A3035 RMK AO2
K2V5 160715Z AUTO 26006KT 10SM CLR 04/M02 A3036 RMK AO2
K2V5 160655Z AUTO 26006KT 10SM CLR 03/M02 A3036 RMK AO2
K2V5 160635Z AUTO 26005KT 10SM CLR 03/M02 A3037 RMK AO2
K2V5 160615Z AUTO 26005KT 10SM CLR 03/M02 A3038 RMK AO2
K2V5 160555Z AUTO 25005KT 10SM CLR 05/M02 A3038 RMK AO2
K2V5 160535Z AUTO 24007KT 10SM CLR 05/M03 A3038 RMK AO2
K2V5 160515Z AUTO 24004KT 10SM CLR 05/M03 A3039 RMK AO2
K2V5 160455Z AUTO 25005KT 10SM CLR 05/M03 A3040 RMK AO2
K2V5 160435Z AUTO 26006KT 10SM CLR 05/M03 A3040 RMK AO2
K2V5 160415Z AUTO 25005KT 10SM CLR 05/M03 A3040 RMK AO2
K2V5 160355Z AUTO 24005KT 10SM CLR 05/M02 A3039 RMK AO2
K2V5 160335Z AUTO 26003KT 10SM CLR 05/M02 A3039 RMK AO2
K2V5 160315Z AUTO 27003KT 10SM CLR 07/M03 A3039 RMK AO2
K2V5 160255Z AUTO 00000KT 10SM CLR 07/M03 A3038 RMK AO2
K2V5 160235Z AUTO 00000KT 10SM CLR 08/M04 A3038 RMK AO2
K2V5 160215Z AUTO 00000KT 10SM CLR 09/M04 A3038 RMK AO2
K2V5 160155Z AUTO 00000KT 10SM CLR 11/M04 A3039 RMK AO2
K2V5 160135Z AUTO 00000KT 10SM CLR 11/M04 A3038 RMK AO2
K2V5 160115Z AUTO 00000KT 10SM CLR 10/M04 A3038 RMK AO2
K2V5 160055Z AUTO 00000KT 10SM CLR 13/M05 A3038 RMK AO2
K2V5 160035Z AUTO 00000KT 10SM CLR 13/M05 A3037 RMK AO2
K2V5 160015Z AUTO 00000KT 10SM CLR 15/M05 A3037 RMK AO2
K2V5 152355Z AUTO 00000KT 10SM CLR 16/M05 A3037 RMK AO2
K2V5 152335Z AUTO 36003KT 10SM CLR 17/M06 A3037 RMK AO2
K2V5 152315Z AUTO 00000KT 10SM CLR 18/M06 A3037 RMK AO2
K2V5 152255Z AUTO 00000KT 10SM CLR 18/M07 A3037 RMK AO2
K2V5 152235Z AUTO 30005KT 10SM CLR 18/M06 A3038 RMK AO2
K2V5 152215Z AUTO 31005KT 10SM CLR 18/M07 A3038 RMK AO2
K2V5 152155Z AUTO 32004KT 10SM CLR 19/M07 A3038 RMK AO2
K2V5 152135Z AUTO 36008KT 10SM CLR 19/M07 A3038 RMK AO2